createdAt,value
2022-11-20T00:01:39.463Z,9.77
2022-11-20T00:04:11.251Z,9.87
2022-11-20T00:06:39.425Z,9.90
2022-11-20T00:09:07.778Z,9.53
2022-11-20T00:11:36.013Z,10.07
2022-11-20T00:14:05.270Z,10.20
2022-11-20T00:16:35.220Z,9.53
2022-11-20T00:19:03.606Z,9.27
2022-11-20T00:21:34.014Z,9.30
2022-11-20T00:24:02.219Z,10.73
2022-11-20T00:26:31.509Z,9.73
2022-11-20T00:29:01.592Z,9.77
2022-11-20T00:31:31.173Z,10.37
2022-11-20T00:34:00.375Z,10.27
2022-11-20T00:36:30.212Z,10.10
2022-11-20T00:39:01.081Z,10.27
2022-11-20T00:41:30.918Z,10.63
2022-11-20T00:43:59.884Z,9.50
2022-11-20T00:46:29.632Z,10.37
2022-11-20T00:48:58.359Z,10.33
2022-11-20T00:51:28.903Z,9.93
2022-11-20T00:54:01.293Z,9.67
2022-11-20T00:56:32.688Z,9.93
2022-11-20T00:59:03.251Z,9.50
2022-11-20T01:01:31.790Z,10.77
2022-11-20T01:04:02.348Z,10.60
2022-11-20T01:06:33.304Z,10.20
2022-11-20T01:09:05.066Z,10.27
2022-11-20T01:11:36.412Z,11.03
2022-11-20T01:14:06.335Z,10.70
2022-11-20T01:16:38.427Z,11.03
2022-11-20T01:19:09.443Z,12.03
2022-11-20T01:21:39.232Z,10.50
2022-11-20T01:24:13.131Z,10.93
2022-11-20T01:26:44.814Z,11.07
2022-11-20T01:29:21.082Z,10.60
2022-11-20T01:31:50.336Z,10.87
2022-11-20T01:34:20.502Z,11.43
2022-11-20T01:36:49.481Z,10.47
2022-11-20T01:39:22.767Z,10.37
2022-11-20T01:42:10.493Z,10.67
2022-11-20T01:44:55.471Z,11.23
2022-11-20T01:47:29.585Z,11.07
2022-11-20T01:50:01.948Z,11.07
2022-11-20T01:52:35.035Z,11.17
2022-11-20T01:55:09.912Z,10.57
2022-11-20T01:57:39.811Z,10.60
2022-11-20T02:00:10.807Z,11.07
2022-11-20T02:02:41.429Z,10.37
2022-11-20T02:05:19.631Z,10.17
2022-11-20T02:07:49.319Z,10.43
2022-11-20T02:10:19.429Z,10.43
2022-11-20T02:13:05.331Z,10.50
2022-11-20T02:15:35.378Z,10.43
2022-11-20T02:18:04.811Z,11.53
2022-11-20T02:20:32.978Z,10.57
2022-11-20T02:23:07.684Z,10.80
2022-11-20T02:25:44.808Z,10.53
2022-11-20T02:28:14.743Z,11.10
2022-11-20T02:30:42.881Z,11.27
2022-11-20T02:33:11.397Z,11.20
2022-11-20T02:35:48.641Z,11.87
2022-11-20T02:38:18.471Z,11.17
2022-11-20T02:40:52.637Z,11.90
2022-11-20T02:43:22.807Z,11.07
2022-11-20T02:45:52.593Z,10.67
2022-11-20T02:48:22.965Z,11.60
2022-11-20T02:50:54.569Z,10.63
2022-11-20T02:53:23.071Z,9.77
2022-11-20T02:55:53.003Z,10.13
2022-11-20T02:58:21.087Z,10.27
2022-11-20T03:00:49.569Z,10.57
2022-11-20T03:03:18.250Z,10.57
2022-11-20T03:05:46.339Z,11.07
2022-11-20T03:08:15.030Z,10.67
2022-11-20T03:10:43.520Z,11.33
2022-11-20T03:13:13.545Z,11.53
2022-11-20T03:15:41.846Z,10.80
2022-11-20T03:18:10.226Z,11.33
2022-11-20T03:20:38.387Z,10.73
2022-11-20T03:23:06.545Z,11.60
2022-11-20T03:25:35.099Z,10.93
2022-11-20T03:28:04.752Z,11.73
2022-11-20T03:30:34.975Z,11.37
2022-11-20T03:33:03.119Z,11.37
2022-11-20T03:35:31.353Z,11.40
2022-11-20T03:38:00.243Z,11.27
2022-11-20T03:40:28.375Z,11.07
2022-11-20T03:42:56.523Z,10.80
2022-11-20T03:45:25.194Z,11.90
2022-11-20T03:47:55.063Z,14.10
2022-11-20T03:50:23.502Z,13.33
2022-11-20T03:52:51.887Z,11.70
2022-11-20T03:55:20.533Z,10.80
2022-11-20T03:57:49.072Z,10.73
2022-11-20T04:00:18.167Z,11.20
2022-11-20T04:02:46.537Z,10.70
2022-11-20T04:05:16.769Z,12.17
2022-11-20T04:07:45.206Z,11.73
2022-11-20T04:10:13.735Z,12.20
2022-11-20T04:12:42.159Z,11.93
2022-11-20T04:15:11.196Z,11.63
2022-11-20T04:17:39.488Z,11.23
2022-11-20T04:20:09.227Z,12.17
2022-11-20T04:22:39.714Z,11.43
2022-11-20T04:25:08.574Z,11.83
2022-11-20T04:27:36.667Z,12.90
2022-11-20T04:30:05.981Z,12.93
2022-11-20T04:32:35.145Z,16.43
2022-11-20T04:35:03.642Z,13.00
2022-11-20T04:37:31.930Z,12.70
2022-11-20T04:40:03.084Z,13.83
2022-11-20T04:42:31.465Z,14.00
2022-11-20T04:45:00.811Z,12.73
2022-11-20T04:47:29.245Z,12.40
2022-11-20T04:49:57.920Z,11.97
2022-11-20T04:52:29.040Z,12.73
2022-11-20T04:55:00.351Z,13.17
2022-11-20T04:57:29.959Z,13.00
2022-11-20T04:59:58.960Z,13.63
2022-11-20T05:02:27.783Z,12.63
2022-11-20T05:04:56.614Z,13.83
2022-11-20T05:07:26.042Z,20.33
2022-11-20T05:09:54.197Z,18.70
2022-11-20T05:12:22.348Z,13.70
2022-11-20T05:14:52.343Z,13.30
2022-11-20T05:17:20.716Z,12.23
2022-11-20T05:19:52.952Z,11.67
2022-11-20T05:22:23.890Z,11.97
2022-11-20T05:24:52.084Z,12.27
2022-11-20T05:27:20.800Z,11.63
2022-11-20T05:29:49.087Z,12.23
2022-11-20T05:32:18.928Z,12.40
2022-11-20T05:34:47.395Z,12.00
2022-11-20T05:37:15.876Z,12.30
2022-11-20T05:39:44.038Z,12.27
2022-11-20T05:42:29.622Z,11.77
2022-11-20T05:44:57.967Z,12.33
2022-11-20T05:47:28.004Z,12.07
2022-11-20T05:49:58.043Z,11.43
2022-11-20T05:52:27.230Z,12.43
2022-11-20T05:54:55.894Z,13.37
2022-11-20T05:57:25.151Z,12.90
2022-11-20T05:59:53.276Z,12.80
2022-11-20T06:02:21.936Z,12.80
2022-11-20T06:04:51.707Z,13.63
2022-11-20T06:07:19.865Z,13.17
2022-11-20T06:09:48.166Z,12.70
2022-11-20T06:12:16.734Z,13.60
2022-11-20T06:14:45.018Z,12.23
2022-11-20T06:17:15.472Z,12.23
2022-11-20T06:19:46.232Z,12.90
2022-11-20T06:22:16.558Z,12.67
2022-11-20T06:24:47.813Z,13.13
2022-11-20T06:27:16.030Z,13.13
2022-11-20T06:29:44.715Z,13.00
2022-11-20T06:32:14.510Z,12.47
2022-11-20T06:34:43.124Z,12.77
2022-11-20T06:37:15.761Z,12.80
2022-11-20T06:39:43.837Z,12.57
2022-11-20T06:42:12.136Z,14.00
2022-11-20T06:44:40.506Z,12.60
2022-11-20T06:47:08.955Z,12.70
2022-11-20T06:49:39.522Z,13.40
2022-11-20T06:52:07.611Z,12.83
2022-11-20T06:54:37.734Z,12.97
2022-11-20T06:57:06.019Z,13.33
2022-11-20T06:59:34.472Z,13.93
2022-11-20T07:02:04.982Z,13.30
2022-11-20T07:04:33.095Z,12.70
2022-11-20T07:07:05.374Z,13.87
2022-11-20T07:09:33.922Z,13.07
2022-11-20T07:12:03.829Z,13.43
2022-11-20T07:14:31.934Z,13.57
2022-11-20T07:17:00.393Z,13.17
2022-11-20T07:19:28.720Z,14.03
2022-11-20T07:21:57.148Z,13.47
2022-11-20T07:24:25.888Z,13.43
2022-11-20T07:27:02.037Z,13.77
2022-11-20T07:29:32.114Z,14.07
2022-11-20T07:32:00.679Z,14.13
2022-11-20T07:34:29.131Z,14.17
2022-11-20T07:36:57.713Z,13.17
2022-11-20T07:39:25.931Z,14.60
2022-11-20T07:41:54.436Z,14.23
2022-11-20T07:44:23.580Z,14.57
2022-11-20T07:46:53.315Z,14.67
2022-11-20T07:49:21.748Z,14.03
2022-11-20T07:51:52.738Z,14.33
2022-11-20T07:54:21.081Z,16.03
2022-11-20T07:56:49.779Z,15.63
2022-11-20T07:59:18.348Z,17.00
2022-11-20T08:01:47.320Z,15.70
2022-11-20T08:04:17.866Z,17.13
2022-11-20T08:06:46.316Z,17.07
2022-11-20T08:09:14.674Z,17.30
2022-11-20T08:12:00.341Z,15.77
2022-11-20T08:14:29.878Z,14.37
2022-11-20T08:16:58.230Z,15.10
2022-11-20T08:19:28.496Z,15.90
2022-11-20T08:21:57.825Z,16.00
2022-11-20T08:24:27.545Z,15.80
2022-11-20T08:26:59.884Z,15.90
2022-11-20T08:29:29.331Z,15.70
2022-11-20T08:31:58.019Z,16.40
2022-11-20T08:34:27.972Z,15.93
2022-11-20T08:36:56.526Z,16.00
2022-11-20T08:39:24.850Z,16.07
2022-11-20T08:41:53.402Z,16.73
2022-11-20T08:44:21.856Z,17.23
2022-11-20T08:46:50.644Z,17.57
2022-11-20T08:49:19.232Z,17.67
2022-11-20T08:51:52.808Z,17.97
2022-11-20T08:54:23.117Z,19.37
2022-11-20T08:56:51.455Z,18.80
2022-11-20T08:59:43.403Z,18.90
2022-11-20T09:02:08.688Z,18.67
2022-11-20T09:04:37.286Z,18.83
2022-11-20T09:07:07.787Z,18.93
2022-11-20T09:09:36.401Z,18.20
2022-11-20T09:12:04.755Z,18.87
2022-11-20T09:14:33.366Z,19.07
2022-11-20T09:17:02.551Z,19.10
2022-11-20T09:19:38.002Z,17.87
2022-11-20T09:22:07.637Z,18.57
2022-11-20T09:24:36.266Z,18.03
2022-11-20T09:27:07.492Z,18.90
2022-11-20T09:29:35.817Z,19.17
2022-11-20T09:32:04.511Z,20.00
2022-11-20T09:34:33.257Z,20.00
2022-11-20T09:37:06.410Z,18.70
2022-11-20T09:39:40.253Z,18.77
2022-11-20T09:42:23.239Z,20.37
2022-11-20T09:45:03.217Z,19.57
2022-11-20T09:47:49.705Z,20.40
2022-11-20T09:50:30.108Z,19.67
2022-11-20T09:53:13.880Z,18.20
2022-11-20T09:55:44.239Z,18.70
2022-11-20T09:58:25.026Z,16.53
2022-11-20T10:00:57.587Z,15.73
2022-11-20T10:03:39.994Z,15.03
2022-11-20T10:06:14.934Z,14.60
2022-11-20T10:08:47.411Z,14.00
2022-11-20T10:11:25.848Z,15.53
2022-11-20T10:14:09.268Z,14.40
2022-11-20T10:16:46.727Z,13.97
2022-11-20T10:19:32.964Z,11.23
2022-11-20T10:22:16.013Z,10.83
2022-11-20T10:24:55.790Z,11.30
2022-11-20T10:28:00.380Z,14.27
2022-11-20T10:30:31.312Z,10.87
2022-11-20T10:33:06.993Z,12.57
2022-11-20T10:35:42.706Z,16.73
2022-11-20T10:38:19.785Z,13.03
2022-11-20T10:40:51.597Z,11.57
2022-11-20T10:43:28.195Z,9.90
2022-11-20T10:46:03.220Z,10.37
2022-11-20T10:48:35.563Z,11.13
2022-11-20T10:51:17.342Z,12.00
2022-11-20T10:53:57.534Z,12.00
2022-11-20T10:56:32.478Z,11.70
2022-11-20T10:59:25.482Z,16.70
2022-11-20T11:01:57.076Z,12.43
2022-11-20T11:04:39.330Z,12.07
2022-11-20T11:07:15.676Z,11.13
2022-11-20T11:09:49.176Z,11.67
2022-11-20T11:12:17.662Z,11.33
2022-11-20T11:14:50.023Z,12.03
2022-11-20T11:17:25.912Z,10.93
2022-11-20T11:20:06.708Z,17.50
2022-11-20T11:22:37.193Z,27.07
2022-11-20T11:25:06.748Z,26.53
2022-11-20T11:27:35.029Z,12.97
2022-11-20T11:30:18.063Z,13.47
2022-11-20T11:32:46.887Z,16.43
2022-11-20T11:35:27.184Z,14.40
2022-11-20T11:38:05.542Z,12.70
2022-11-20T11:40:36.552Z,13.30
2022-11-20T11:43:31.858Z,10.50
2022-11-20T11:46:07.490Z,11.70
2022-11-20T11:48:35.964Z,13.17
2022-11-20T11:51:04.163Z,12.50
2022-11-20T11:53:33.664Z,12.30
2022-11-20T11:56:10.766Z,13.33
2022-11-20T11:58:48.045Z,12.40
2022-11-20T12:01:30.460Z,14.27
2022-11-20T12:04:06.227Z,15.27
2022-11-20T12:06:39.151Z,12.27
2022-11-20T12:09:13.195Z,15.20
2022-11-20T12:11:47.863Z,15.10
2022-11-20T12:14:25.118Z,14.97
2022-11-20T12:16:56.791Z,13.60
2022-11-20T12:19:25.153Z,13.80
2022-11-20T12:22:07.007Z,13.33
2022-11-20T12:24:48.142Z,13.10
2022-11-20T12:27:55.872Z,12.90
2022-11-20T12:30:25.953Z,12.23
2022-11-20T12:33:15.075Z,11.67
2022-11-20T12:36:08.981Z,12.30
2022-11-20T12:39:00.775Z,12.50
2022-11-20T12:42:02.974Z,12.53
2022-11-20T12:45:10.274Z,12.77
2022-11-20T12:47:52.623Z,13.17
2022-11-20T12:50:53.424Z,13.07
2022-11-20T12:53:35.823Z,13.97
2022-11-20T12:56:19.250Z,13.93
2022-11-20T12:58:59.352Z,12.83
2022-11-20T13:01:45.291Z,14.10
2022-11-20T13:04:27.127Z,15.40
2022-11-20T13:06:58.633Z,17.50
2022-11-20T13:09:28.459Z,22.07
2022-11-20T13:12:08.227Z,15.23
2022-11-20T13:14:42.949Z,15.43
2022-11-20T13:17:19.659Z,14.33
2022-11-20T13:19:52.656Z,17.20
2022-11-20T13:22:29.325Z,18.13
2022-11-20T13:24:59.274Z,16.93
2022-11-20T13:27:27.325Z,14.97
2022-11-20T13:30:05.862Z,16.07
2022-11-20T13:32:34.223Z,15.73
2022-11-20T13:35:05.117Z,15.97
2022-11-20T13:37:36.712Z,16.20
2022-11-20T13:40:24.547Z,15.53
2022-11-20T13:43:07.006Z,14.90
2022-11-20T13:45:35.184Z,16.07
2022-11-20T13:48:07.074Z,15.70
2022-11-20T13:50:50.749Z,15.17
2022-11-20T13:53:40.506Z,14.47
2022-11-20T13:56:19.478Z,15.00
2022-11-20T13:58:56.715Z,15.57
2022-11-20T14:01:27.799Z,15.23
2022-11-20T14:04:06.068Z,14.83
2022-11-20T14:06:43.422Z,14.43
2022-11-20T14:09:27.196Z,15.80
2022-11-20T14:11:55.313Z,14.73
2022-11-20T14:14:26.681Z,16.80
2022-11-20T14:17:07.130Z,14.90
2022-11-20T14:19:38.267Z,16.20
2022-11-20T14:22:13.327Z,16.70
2022-11-20T14:24:44.768Z,17.60
2022-11-20T14:27:16.141Z,15.07
2022-11-20T14:29:46.286Z,14.20
2022-11-20T14:32:18.787Z,15.23
2022-11-20T14:34:50.934Z,15.13
2022-11-20T14:37:24.274Z,14.50
2022-11-20T14:39:57.173Z,15.63
2022-11-20T14:42:28.137Z,15.00
2022-11-20T14:45:01.435Z,15.97
2022-11-20T14:47:32.953Z,14.40
2022-11-20T14:50:07.339Z,13.80
2022-11-20T14:52:38.181Z,14.43
2022-11-20T14:55:16.453Z,14.73
2022-11-20T14:57:44.562Z,15.47
2022-11-20T15:00:23.186Z,15.47
2022-11-20T15:02:53.774Z,15.93
2022-11-20T15:05:24.086Z,14.83
2022-11-20T15:07:55.108Z,17.57
2022-11-20T15:10:28.494Z,17.10
2022-11-20T15:13:01.123Z,17.00
2022-11-20T15:15:35.181Z,17.20
2022-11-20T15:18:04.599Z,16.40
2022-11-20T15:20:34.822Z,15.73
2022-11-20T15:23:03.881Z,16.97
2022-11-20T15:25:34.481Z,16.63
2022-11-20T15:28:03.345Z,17.27
2022-11-20T15:30:31.668Z,15.50
2022-11-20T15:33:01.170Z,16.67
2022-11-20T15:35:29.704Z,17.43
2022-11-20T15:37:58.128Z,18.00
2022-11-20T15:40:26.336Z,16.27
2022-11-20T15:43:13.277Z,16.83
2022-11-20T15:45:45.111Z,16.17
2022-11-20T15:48:17.042Z,17.63
2022-11-20T15:50:52.358Z,17.50
2022-11-20T15:53:22.254Z,16.03
2022-11-20T15:55:56.817Z,16.30
2022-11-20T15:58:27.772Z,15.60
2022-11-20T16:00:59.816Z,16.03
2022-11-20T16:03:29.432Z,15.47
2022-11-20T16:06:01.287Z,16.53
2022-11-20T16:08:29.832Z,15.57
2022-11-20T16:10:59.470Z,15.57
2022-11-20T16:13:48.679Z,16.27
2022-11-20T16:16:24.266Z,16.33
2022-11-20T16:18:52.869Z,16.37
2022-11-20T16:21:21.404Z,18.03
2022-11-20T16:23:52.582Z,16.70
2022-11-20T16:26:21.910Z,16.83
2022-11-20T16:28:52.051Z,18.90
2022-11-20T16:31:22.035Z,19.07
2022-11-20T16:33:54.516Z,20.10
2022-11-20T16:36:24.451Z,18.67
2022-11-20T16:38:55.006Z,18.67
2022-11-20T16:41:23.646Z,20.77
2022-11-20T16:43:54.686Z,18.93
2022-11-20T16:46:25.874Z,19.13
2022-11-20T16:49:00.439Z,20.37
2022-11-20T16:51:32.236Z,20.73
2022-11-20T16:54:03.678Z,19.93
2022-11-20T16:56:32.732Z,19.47
2022-11-20T16:59:04.264Z,22.17
2022-11-20T17:01:33.261Z,21.07
2022-11-20T17:04:03.175Z,19.87
2022-11-20T17:06:33.089Z,19.57
2022-11-20T17:09:02.180Z,20.57
2022-11-20T17:11:30.960Z,19.93
2022-11-20T17:14:00.993Z,20.83
2022-11-20T17:16:31.941Z,20.97
2022-11-20T17:19:05.870Z,21.47
2022-11-20T17:21:36.244Z,21.93
2022-11-20T17:24:06.599Z,29.40
2022-11-20T17:26:36.356Z,24.10
2022-11-20T17:29:08.202Z,22.53
2022-11-20T17:31:40.062Z,20.23
2022-11-20T17:34:12.616Z,21.27
2022-11-20T17:36:45.180Z,21.77
2022-11-20T17:39:14.988Z,20.80
2022-11-20T17:41:43.339Z,18.67
2022-11-20T17:44:12.763Z,19.57
2022-11-20T17:46:42.409Z,18.83
2022-11-20T17:49:10.958Z,19.60
2022-11-20T17:51:40.943Z,20.77
2022-11-20T17:54:10.620Z,20.23
2022-11-20T17:56:56.823Z,19.57
2022-11-20T17:59:25.525Z,19.10
2022-11-20T18:01:58.591Z,19.03
2022-11-20T18:04:31.061Z,19.77
2022-11-20T18:06:59.710Z,19.73
2022-11-20T18:09:27.918Z,18.57
2022-11-20T18:11:57.720Z,18.67
2022-11-20T18:14:32.958Z,18.50
2022-11-20T18:17:06.133Z,20.37
2022-11-20T18:19:42.654Z,18.43
2022-11-20T18:22:17.888Z,19.20
2022-11-20T18:24:46.930Z,18.77
2022-11-20T18:27:17.357Z,18.47
2022-11-20T18:29:48.701Z,18.50
2022-11-20T18:32:19.670Z,17.43
2022-11-20T18:34:47.987Z,17.60
2022-11-20T18:37:16.834Z,18.10
2022-11-20T18:39:45.871Z,19.07
2022-11-20T18:42:33.831Z,17.30
2022-11-20T18:45:04.424Z,16.53
2022-11-20T18:47:38.203Z,15.40
2022-11-20T18:50:09.040Z,16.80
2022-11-20T18:52:41.510Z,16.00
2022-11-20T18:55:12.203Z,14.33
2022-11-20T18:57:41.767Z,16.27
2022-11-20T19:00:12.014Z,16.83
2022-11-20T19:02:43.182Z,14.53
2022-11-20T19:05:12.786Z,15.80
2022-11-20T19:07:41.380Z,16.77
2022-11-20T19:10:10.486Z,16.97
2022-11-20T19:12:38.670Z,16.83
2022-11-20T19:15:08.408Z,17.07
2022-11-20T19:17:38.727Z,16.30
2022-11-20T19:20:10.441Z,16.23
2022-11-20T19:22:38.950Z,15.70
2022-11-20T19:25:08.383Z,16.23
2022-11-20T19:27:37.121Z,16.70
2022-11-20T19:30:07.776Z,16.00
2022-11-20T19:32:37.046Z,15.37
2022-11-20T19:35:06.271Z,15.47
2022-11-20T19:37:36.829Z,19.83
2022-11-20T19:40:06.155Z,15.33
2022-11-20T19:42:36.828Z,15.17
2022-11-20T19:45:06.126Z,15.10
2022-11-20T19:48:00.985Z,14.63
2022-11-20T19:50:23.340Z,15.37
2022-11-20T19:52:59.102Z,18.20
2022-11-20T19:55:27.919Z,15.93
2022-11-20T19:57:56.358Z,21.47
2022-11-20T20:00:31.057Z,16.40
2022-11-20T20:03:01.063Z,21.27
2022-11-20T20:05:29.687Z,14.20
2022-11-20T20:08:02.490Z,13.83
2022-11-20T20:10:31.612Z,13.90
2022-11-20T20:13:04.710Z,12.83
2022-11-20T20:15:33.377Z,13.60
2022-11-20T20:18:01.984Z,13.13
2022-11-20T20:20:30.092Z,16.30
2022-11-20T20:23:00.073Z,14.13
2022-11-20T20:25:28.559Z,12.77
2022-11-20T20:27:56.868Z,11.17
2022-11-20T20:30:25.505Z,11.93
2022-11-20T20:32:56.443Z,11.57
2022-11-20T20:35:25.702Z,11.10
2022-11-20T20:37:53.737Z,11.00
2022-11-20T20:40:23.820Z,8.87
2022-11-20T20:42:52.227Z,8.13
2022-11-20T20:45:20.831Z,9.00
2022-11-20T20:47:49.249Z,7.93
2022-11-20T20:50:17.784Z,8.33
2022-11-20T20:52:46.447Z,8.20
2022-11-20T20:55:15.318Z,6.80
2022-11-20T20:57:45.687Z,6.27
2022-11-20T21:00:15.207Z,6.37
2022-11-20T21:02:43.450Z,6.40
2022-11-20T21:05:11.966Z,5.53
2022-11-20T21:08:00.367Z,4.97
2022-11-20T21:10:30.667Z,4.47
2022-11-20T21:13:02.906Z,4.70
2022-11-20T21:15:31.366Z,4.80
2022-11-20T21:18:00.056Z,3.90
2022-11-20T21:20:47.317Z,3.40
2022-11-20T21:23:15.722Z,3.80
2022-11-20T21:25:45.546Z,3.93
2022-11-20T21:28:18.209Z,3.83
2022-11-20T21:30:47.812Z,3.67
2022-11-20T21:33:17.412Z,3.50
2022-11-20T21:35:46.652Z,3.07
2022-11-20T21:38:15.278Z,2.97
2022-11-20T21:40:44.023Z,2.80
2022-11-20T21:43:19.287Z,2.73
2022-11-20T21:45:47.567Z,2.90
2022-11-20T21:48:16.268Z,2.97
2022-11-20T21:50:45.078Z,2.63
2022-11-20T21:53:13.515Z,2.20
2022-11-20T21:55:42.248Z,2.03
2022-11-20T21:58:10.782Z,1.87
2022-11-20T22:00:40.619Z,2.10
2022-11-20T22:03:11.255Z,1.87
2022-11-20T22:05:39.414Z,1.77
2022-11-20T22:08:08.473Z,1.33
2022-11-20T22:10:37.467Z,1.70
2022-11-20T22:13:23.147Z,1.60
2022-11-20T22:16:00.933Z,1.50
2022-11-20T22:18:29.687Z,1.80
2022-11-20T22:20:58.337Z,1.60
2022-11-20T22:23:26.503Z,1.70
2022-11-20T22:25:54.672Z,2.27
2022-11-20T22:28:24.049Z,1.87
2022-11-20T22:30:54.286Z,1.60
2022-11-20T22:33:22.715Z,2.03
2022-11-20T22:35:51.241Z,1.93
2022-11-20T22:38:21.070Z,1.60
2022-11-20T22:40:49.546Z,1.60
2022-11-20T22:43:18.360Z,2.07
2022-11-20T22:45:47.153Z,1.60
2022-11-20T22:48:19.900Z,1.60
2022-11-20T22:50:48.455Z,1.70
2022-11-20T22:53:16.944Z,1.77
2022-11-20T22:55:53.343Z,1.80
2022-11-20T22:58:23.785Z,1.47
2022-11-20T23:00:54.525Z,2.10
2022-11-20T23:03:25.740Z,1.40
2022-11-20T23:05:53.970Z,1.40
2022-11-20T23:08:22.462Z,1.87
2022-11-20T23:10:52.151Z,1.70
2022-11-20T23:13:20.540Z,1.93
2022-11-20T23:15:55.826Z,1.90
2022-11-20T23:18:25.960Z,1.87
2022-11-20T23:20:54.180Z,1.50
2022-11-20T23:23:22.668Z,1.73
2022-11-20T23:25:51.450Z,1.77
2022-11-20T23:28:20.105Z,1.60
2022-11-20T23:30:49.199Z,1.57
2022-11-20T23:33:18.134Z,1.50
2022-11-20T23:35:49.688Z,1.83
2022-11-20T23:38:18.307Z,1.80
2022-11-20T23:40:49.821Z,1.10
2022-11-20T23:43:18.833Z,1.60
2022-11-20T23:45:48.949Z,1.80
2022-11-20T23:48:18.156Z,1.53
2022-11-20T23:50:47.312Z,1.77
2022-11-20T23:53:17.590Z,1.47
2022-11-20T23:55:48.487Z,1.80
2022-11-20T23:58:17.473Z,1.70
